• Join FlightAware (Why Join?)
  • Login
  • US Flag 
05:37AM EST


 

Airport Tracker/Info


-or-


 

Live Flight TrackerFlight Track Log ✈ EJA361 ✈ 19-Jun-2013 ✈ KMPV - KLGA

Flight Track Log - Related Links

Times and Time Zones

All times are in EDT time to prevent confusion due to time zone crossing. See the EJA361 flight status page for this flight to view local times or setup timezone preferences in your user account.

Time Position Orientation Groundspeed Altitude Reporting Facility
EDT Latitude Longitude Course Direction KTS MPH feet Rate Location/Type
01:25PM 43.7031 -72.8813 206° Southwest  Level FlightAware Approximate
01:25PM 44.1194 -72.6800 206° Southwest 409 471 9,600  Level Boston Center
01:26PM 44.0381 -72.7289 203° Southwest 340 391 10,000 600 Climbing Boston Center
01:27PM 43.9503 -72.7803 203° Southwest 333 383 10,800 2,350 Climbing Boston Center
01:28PM 43.8647 -72.8317 203° Southwest 339 390 14,700 3,850 Climbing Boston Center
01:29PM 43.7750 -72.8858 204° Southwest 344 396 18,500 3,350 Climbing Boston Center
01:30PM 43.6831 -72.9397 203° Southwest 344 396 21,400 1,750 Climbing Boston Center
01:31PM 43.5911 -72.9992 205° Southwest 353 406 22,000 300 Climbing Boston Center
01:32PM 43.4969 -73.0525 202° Southwest 379 436 22,000  Level Boston Center
01:33PM 43.3861 -73.1172 203° Southwest 394 453 22,000  Level Boston Center
01:34PM 43.2964 -73.1733 204° Southwest 399 459 22,000  Level Boston Center
01:35PM 43.1958 -73.2319 203° Southwest 394 453 22,000  Level Boston Center
01:36PM 43.0933 -73.2903 203° Southwest 394 453 22,000  Level Boston Center
01:37PM 42.9886 -73.3653 208° Southwest 394 453 22,000  Level Boston Center
01:38PM 42.8839 -73.4092 197° South 394 453 22,000  Level Boston Center
01:39PM 42.7881 -73.4275 188° South 388 447 22,000  Level Boston Center
01:40PM 42.6794 -73.4483 188° South 399 459 22,000  Level Boston Center
01:41PM 42.5667 -73.4661 187° South 405 466 22,000  Level Boston Center
01:42PM 42.4561 -73.4869 188° South 405 466 22,000  Level Boston Center
01:43PM 42.3433 -73.5047 187° South 410 472 22,000 -600 Level Boston Center
01:44PM 42.2328 -73.5253 188° South 410 472 20,800 -1,900 Descending Boston Center
01:45PM 42.1242 -73.5431 187° South 410 472 18,200 -1,400 Descending Boston Center
01:46PM 42.0092 -73.5606 186° South 391 450 18,000 -200 Descending Boston Center
01:47PM 41.9133 -73.5783 188° South 363 418 17,800 -650 Descending Boston Center
01:48PM 41.8236 -73.5933 187° South 340 391 16,700 -1,050 Descending Boston Center
01:49PM 41.7478 -73.6478 208° Southwest 309 356 15,700 -1,000 Descending Boston Center
01:50PM 41.7031 -73.7469 239° Southwest 298 343 14,700 -1,050 Descending Boston Center
01:51PM 41.6458 -73.8292 227° Southwest 303 349 13,600 -1,250 Descending Boston Center
01:52PM 41.5600 -73.8494 190° South 308 354 12,200 -1,282 Descending Boston Center
01:53PM 41.5000 -73.8667 192° South 309 356 11,400 -1,165 Descending New York TRACON
01:54PM 41.4167 -73.8667 180° South 309 356 10,200 -1,250 Descending New York TRACON
01:55PM 41.3500 -73.8000 143° Southeast 302 348 8,900 -1,250 Descending New York TRACON
01:56PM 41.2833 -73.7333 143° Southeast 299 344 7,700 -1,100 Descending New York TRACON
01:57PM 41.2333 -73.6500 129° Southeast 255 293 6,700 -1,050 Descending New York TRACON
01:58PM 41.2000 -73.5833 124° Southeast 238 274 5,600 -1,143 Descending New York TRACON
01:59PM 41.1500 -73.5000 129° Southeast 240 276 4,300 -800 Descending New York TRACON
02:00PM 41.1167 -73.4500 131° Southeast 233 268 4,000 -150 Descending New York TRACON
02:01PM 41.0667 -73.5000 217° Southwest 230 265 4,000  Level New York TRACON
02:02PM 41.0500 -73.5667 252° West 216 249 4,000  Level New York TRACON
02:03PM 41.0000 -73.6167 217° Southwest 230 265 4,000  Level New York TRACON
02:04PM 40.9333 -73.6500 201° Southwest 238 274 4,000  Level New York TRACON
02:05PM 40.8833 -73.6667 194° South 226 260 4,000  Level New York TRACON
02:06PM 40.8167 -73.7000 201° Southwest 229 264 4,000  Level New York TRACON
02:07PM 40.7667 -73.7167 194° South 233 268 4,000  Level New York TRACON
02:08PM 40.7667 -73.7833 270° West 192 221 4,000  Level New York TRACON